sensor_id;sensor_type;location;lat;lon;timestamp;P1;durP1;ratioP1;P2;durP2;ratioP2
75698;SDS011;64313;51.018;13.742;2022-12-13T00:01:34;13.55;;;5.72;;
75698;SDS011;64313;51.018;13.742;2022-12-13T00:04:01;12.43;;;5.63;;
75698;SDS011;64313;51.018;13.742;2022-12-13T00:06:28;12.93;;;5.43;;
75698;SDS011;64313;51.018;13.742;2022-12-13T00:08:54;10.35;;;5.05;;
75698;SDS011;64313;51.018;13.742;2022-12-13T00:11:20;11.65;;;5.18;;
75698;SDS011;64313;51.018;13.742;2022-12-13T00:13:46;11.93;;;5.65;;
75698;SDS011;64313;51.018;13.742;2022-12-13T00:16:13;11.05;;;5.05;;
75698;SDS011;64313;51.018;13.742;2022-12-13T00:18:47;10.60;;;4.80;;
75698;SDS011;64313;51.018;13.742;2022-12-13T00:21:14;11.40;;;5.13;;
75698;SDS011;64313;51.018;13.742;2022-12-13T00:23:41;12.25;;;5.45;;
75698;SDS011;64313;51.018;13.742;2022-12-13T00:26:12;11.20;;;5.05;;
75698;SDS011;64313;51.018;13.742;2022-12-13T00:28:42;11.35;;;5.18;;
75698;SDS011;64313;51.018;13.742;2022-12-13T00:31:08;11.88;;;5.38;;
75698;SDS011;64313;51.018;13.742;2022-12-13T00:33:35;11.25;;;5.18;;
75698;SDS011;64313;51.018;13.742;2022-12-13T00:36:03;12.75;;;5.22;;
75698;SDS011;64313;51.018;13.742;2022-12-13T00:38:30;10.90;;;5.03;;
75698;SDS011;64313;51.018;13.742;2022-12-13T00:40:55;12.25;;;5.00;;
75698;SDS011;64313;51.018;13.742;2022-12-13T00:43:21;10.75;;;4.70;;
75698;SDS011;64313;51.018;13.742;2022-12-13T00:45:46;10.65;;;4.63;;
75698;SDS011;64313;51.018;13.742;2022-12-13T00:48:12;9.60;;;4.40;;
75698;SDS011;64313;51.018;13.742;2022-12-13T00:50:37;10.25;;;4.90;;
75698;SDS011;64313;51.018;13.742;2022-12-13T00:53:03;11.05;;;4.60;;
75698;SDS011;64313;51.018;13.742;2022-12-13T00:55:28;12.75;;;5.25;;
75698;SDS011;64313;51.018;13.742;2022-12-13T00:57:54;12.48;;;5.38;;
75698;SDS011;64313;51.018;13.742;2022-12-13T01:00:19;13.50;;;5.68;;
75698;SDS011;64313;51.018;13.742;2022-12-13T01:02:44;11.38;;;4.85;;
75698;SDS011;64313;51.018;13.742;2022-12-13T01:05:10;13.10;;;5.30;;
75698;SDS011;64313;51.018;13.742;2022-12-13T01:07:36;12.35;;;5.25;;
75698;SDS011;64313;51.018;13.742;2022-12-13T01:12:28;11.75;;;4.82;;
75698;SDS011;64313;51.018;13.742;2022-12-13T01:14:54;12.68;;;5.15;;
75698;SDS011;64313;51.018;13.742;2022-12-13T01:17:19;11.27;;;5.40;;
75698;SDS011;64313;51.018;13.742;2022-12-13T01:19:45;11.27;;;4.57;;
75698;SDS011;64313;51.018;13.742;2022-12-13T01:22:11;13.13;;;4.80;;
75698;SDS011;64313;51.018;13.742;2022-12-13T01:24:36;10.35;;;4.63;;
75698;SDS011;64313;51.018;13.742;2022-12-13T01:27:02;11.38;;;5.30;;
75698;SDS011;64313;51.018;13.742;2022-12-13T01:29:28;11.85;;;4.65;;
75698;SDS011;64313;51.018;13.742;2022-12-13T01:31:53;11.45;;;5.07;;
75698;SDS011;64313;51.018;13.742;2022-12-13T01:34:20;11.55;;;4.95;;
75698;SDS011;64313;51.018;13.742;2022-12-13T01:36:47;10.68;;;4.80;;
75698;SDS011;64313;51.018;13.742;2022-12-13T01:39:13;10.82;;;4.72;;
75698;SDS011;64313;51.018;13.742;2022-12-13T01:41:42;11.50;;;5.38;;
75698;SDS011;64313;51.018;13.742;2022-12-13T01:47:11;12.93;;;5.50;;
75698;SDS011;64313;51.018;13.742;2022-12-13T01:49:40;12.70;;;5.18;;
75698;SDS011;64313;51.018;13.742;2022-12-13T01:52:06;11.85;;;6.05;;
75698;SDS011;64313;51.018;13.742;2022-12-13T01:54:36;10.63;;;4.68;;
75698;SDS011;64313;51.018;13.742;2022-12-13T01:57:07;11.43;;;5.38;;
75698;SDS011;64313;51.018;13.742;2022-12-13T01:59:34;12.68;;;5.55;;
75698;SDS011;64313;51.018;13.742;2022-12-13T02:02:02;11.65;;;5.00;;
75698;SDS011;64313;51.018;13.742;2022-12-13T02:04:30;10.93;;;5.28;;
75698;SDS011;64313;51.018;13.742;2022-12-13T02:06:58;11.60;;;5.15;;
75698;SDS011;64313;51.018;13.742;2022-12-13T02:09:24;11.40;;;5.38;;
75698;SDS011;64313;51.018;13.742;2022-12-13T02:11:50;11.38;;;5.47;;
75698;SDS011;64313;51.018;13.742;2022-12-13T02:14:15;11.10;;;5.25;;
75698;SDS011;64313;51.018;13.742;2022-12-13T02:16:54;12.00;;;5.50;;
75698;SDS011;64313;51.018;13.742;2022-12-13T02:19:46;11.02;;;4.95;;
75698;SDS011;64313;51.018;13.742;2022-12-13T02:22:37;12.65;;;5.82;;
75698;SDS011;64313;51.018;13.742;2022-12-13T02:25:18;12.50;;;5.57;;
75698;SDS011;64313;51.018;13.742;2022-12-13T02:30:50;9.57;;;4.63;;
75698;SDS011;64313;51.018;13.742;2022-12-13T02:33:23;10.43;;;5.03;;
75698;SDS011;64313;51.018;13.742;2022-12-13T02:36:05;12.00;;;5.47;;
75698;SDS011;64313;51.018;13.742;2022-12-13T02:41:32;11.73;;;5.15;;
75698;SDS011;64313;51.018;13.742;2022-12-13T02:44:05;11.45;;;4.88;;
75698;SDS011;64313;51.018;13.742;2022-12-13T02:46:42;12.45;;;5.32;;
75698;SDS011;64313;51.018;13.742;2022-12-13T02:49:15;11.60;;;5.32;;
75698;SDS011;64313;51.018;13.742;2022-12-13T02:51:41;10.32;;;4.55;;
75698;SDS011;64313;51.018;13.742;2022-12-13T02:54:08;10.00;;;4.95;;
75698;SDS011;64313;51.018;13.742;2022-12-13T02:56:34;9.75;;;4.63;;
75698;SDS011;64313;51.018;13.742;2022-12-13T03:07:52;10.85;;;5.20;;
75698;SDS011;64313;51.018;13.742;2022-12-13T03:10:36;12.60;;;5.78;;
75698;SDS011;64313;51.018;13.742;2022-12-13T03:13:12;11.20;;;5.20;;
75698;SDS011;64313;51.018;13.742;2022-12-13T03:16:25;10.63;;;5.35;;
75698;SDS011;64313;51.018;13.742;2022-12-13T03:18:52;12.00;;;5.15;;
75698;SDS011;64313;51.018;13.742;2022-12-13T03:21:20;13.32;;;5.75;;
75698;SDS011;64313;51.018;13.742;2022-12-13T03:23:45;12.65;;;5.78;;
75698;SDS011;64313;51.018;13.742;2022-12-13T03:26:12;13.98;;;5.88;;
75698;SDS011;64313;51.018;13.742;2022-12-13T03:28:40;11.48;;;5.55;;
75698;SDS011;64313;51.018;13.742;2022-12-13T03:31:06;12.35;;;6.10;;
75698;SDS011;64313;51.018;13.742;2022-12-13T03:33:31;12.50;;;5.55;;
75698;SDS011;64313;51.018;13.742;2022-12-13T03:35:57;12.77;;;6.13;;
75698;SDS011;64313;51.018;13.742;2022-12-13T03:38:23;13.57;;;6.15;;
75698;SDS011;64313;51.018;13.742;2022-12-13T03:40:53;12.73;;;6.00;;
75698;SDS011;64313;51.018;13.742;2022-12-13T03:43:22;11.82;;;5.07;;
75698;SDS011;64313;51.018;13.742;2022-12-13T03:45:47;11.55;;;5.32;;
75698;SDS011;64313;51.018;13.742;2022-12-13T03:48:13;12.13;;;5.38;;
75698;SDS011;64313;51.018;13.742;2022-12-13T03:50:39;11.60;;;5.40;;
75698;SDS011;64313;51.018;13.742;2022-12-13T03:53:04;12.65;;;5.72;;
75698;SDS011;64313;51.018;13.742;2022-12-13T03:55:30;12.25;;;5.55;;
75698;SDS011;64313;51.018;13.742;2022-12-13T03:57:55;11.05;;;5.82;;
75698;SDS011;64313;51.018;13.742;2022-12-13T04:00:20;12.55;;;5.43;;
75698;SDS011;64313;51.018;13.742;2022-12-13T04:02:46;12.10;;;5.20;;
75698;SDS011;64313;51.018;13.742;2022-12-13T04:05:11;13.55;;;6.32;;
75698;SDS011;64313;51.018;13.742;2022-12-13T04:07:37;13.32;;;6.05;;
75698;SDS011;64313;51.018;13.742;2022-12-13T04:10:02;12.45;;;5.53;;
75698;SDS011;64313;51.018;13.742;2022-12-13T04:12:28;11.48;;;5.30;;
75698;SDS011;64313;51.018;13.742;2022-12-13T04:15:12;13.15;;;5.65;;
75698;SDS011;64313;51.018;13.742;2022-12-13T04:17:38;13.52;;;5.88;;
75698;SDS011;64313;51.018;13.742;2022-12-13T04:20:03;12.23;;;5.43;;
75698;SDS011;64313;51.018;13.742;2022-12-13T04:22:29;11.50;;;5.45;;
75698;SDS011;64313;51.018;13.742;2022-12-13T04:24:54;13.27;;;5.47;;
75698;SDS011;64313;51.018;13.742;2022-12-13T04:27:19;10.38;;;5.47;;
75698;SDS011;64313;51.018;13.742;2022-12-13T04:29:45;12.43;;;5.95;;
75698;SDS011;64313;51.018;13.742;2022-12-13T04:32:10;11.80;;;5.53;;
75698;SDS011;64313;51.018;13.742;2022-12-13T04:34:35;11.52;;;5.35;;
75698;SDS011;64313;51.018;13.742;2022-12-13T04:37:01;11.10;;;5.20;;
75698;SDS011;64313;51.018;13.742;2022-12-13T04:39:26;12.57;;;5.55;;
75698;SDS011;64313;51.018;13.742;2022-12-13T04:41:51;12.02;;;5.70;;
75698;SDS011;64313;51.018;13.742;2022-12-13T04:44:17;11.98;;;5.53;;
75698;SDS011;64313;51.018;13.742;2022-12-13T04:46:43;12.10;;;5.15;;
75698;SDS011;64313;51.018;13.742;2022-12-13T04:49:08;12.13;;;5.70;;
75698;SDS011;64313;51.018;13.742;2022-12-13T04:51:33;12.15;;;5.97;;
75698;SDS011;64313;51.018;13.742;2022-12-13T04:53:59;13.35;;;6.35;;
75698;SDS011;64313;51.018;13.742;2022-12-13T04:56:24;14.38;;;6.32;;
75698;SDS011;64313;51.018;13.742;2022-12-13T04:58:49;23.05;;;8.90;;
75698;SDS011;64313;51.018;13.742;2022-12-13T05:01:15;22.90;;;9.23;;
75698;SDS011;64313;51.018;13.742;2022-12-13T05:03:41;21.65;;;9.00;;
75698;SDS011;64313;51.018;13.742;2022-12-13T05:06:07;16.92;;;7.82;;
75698;SDS011;64313;51.018;13.742;2022-12-13T05:08:35;16.35;;;6.90;;
75698;SDS011;64313;51.018;13.742;2022-12-13T05:11:01;13.32;;;6.53;;
75698;SDS011;64313;51.018;13.742;2022-12-13T05:13:27;14.10;;;6.72;;
75698;SDS011;64313;51.018;13.742;2022-12-13T05:16:03;13.52;;;6.25;;
75698;SDS011;64313;51.018;13.742;2022-12-13T05:18:31;13.20;;;6.03;;
75698;SDS011;64313;51.018;13.742;2022-12-13T05:21:02;13.90;;;5.90;;
75698;SDS011;64313;51.018;13.742;2022-12-13T05:23:31;12.30;;;5.45;;
75698;SDS011;64313;51.018;13.742;2022-12-13T05:25:57;12.32;;;6.03;;
75698;SDS011;64313;51.018;13.742;2022-12-13T05:28:24;12.00;;;5.82;;
75698;SDS011;64313;51.018;13.742;2022-12-13T05:30:52;11.35;;;5.38;;
75698;SDS011;64313;51.018;13.742;2022-12-13T05:33:19;14.32;;;6.00;;
75698;SDS011;64313;51.018;13.742;2022-12-13T05:35:46;12.35;;;5.75;;
75698;SDS011;64313;51.018;13.742;2022-12-13T05:38:11;14.50;;;6.00;;
75698;SDS011;64313;51.018;13.742;2022-12-13T05:40:37;16.08;;;7.20;;
75698;SDS011;64313;51.018;13.742;2022-12-13T05:43:02;18.98;;;8.52;;
75698;SDS011;64313;51.018;13.742;2022-12-13T05:45:31;17.45;;;7.03;;
75698;SDS011;64313;51.018;13.742;2022-12-13T05:47:57;15.32;;;6.72;;
75698;SDS011;64313;51.018;13.742;2022-12-13T05:50:23;16.77;;;7.40;;
75698;SDS011;64313;51.018;13.742;2022-12-13T05:52:49;18.60;;;8.15;;
75698;SDS011;64313;51.018;13.742;2022-12-13T05:55:14;17.45;;;7.38;;
75698;SDS011;64313;51.018;13.742;2022-12-13T05:57:40;17.83;;;7.85;;
75698;SDS011;64313;51.018;13.742;2022-12-13T06:00:06;16.50;;;7.78;;
75698;SDS011;64313;51.018;13.742;2022-12-13T06:02:38;16.40;;;7.13;;
75698;SDS011;64313;51.018;13.742;2022-12-13T06:05:05;18.08;;;7.70;;
75698;SDS011;64313;51.018;13.742;2022-12-13T06:07:30;17.83;;;7.20;;
75698;SDS011;64313;51.018;13.742;2022-12-13T06:09:56;14.73;;;6.38;;
75698;SDS011;64313;51.018;13.742;2022-12-13T06:12:21;15.80;;;6.97;;
75698;SDS011;64313;51.018;13.742;2022-12-13T06:14:47;15.00;;;6.90;;
75698;SDS011;64313;51.018;13.742;2022-12-13T06:17:12;15.85;;;6.60;;
75698;SDS011;64313;51.018;13.742;2022-12-13T06:19:37;14.82;;;6.35;;
75698;SDS011;64313;51.018;13.742;2022-12-13T06:22:03;13.48;;;6.40;;
75698;SDS011;64313;51.018;13.742;2022-12-13T06:24:28;14.63;;;6.57;;
75698;SDS011;64313;51.018;13.742;2022-12-13T06:26:54;14.30;;;6.80;;
75698;SDS011;64313;51.018;13.742;2022-12-13T06:29:20;17.52;;;6.93;;
75698;SDS011;64313;51.018;13.742;2022-12-13T06:31:46;16.65;;;7.35;;
75698;SDS011;64313;51.018;13.742;2022-12-13T06:34:12;14.00;;;6.68;;
75698;SDS011;64313;51.018;13.742;2022-12-13T06:36:37;13.82;;;6.43;;
75698;SDS011;64313;51.018;13.742;2022-12-13T06:39:03;14.05;;;6.55;;
75698;SDS011;64313;51.018;13.742;2022-12-13T06:41:30;12.82;;;6.18;;
75698;SDS011;64313;51.018;13.742;2022-12-13T06:43:56;15.05;;;6.82;;
75698;SDS011;64313;51.018;13.742;2022-12-13T06:46:22;13.77;;;6.35;;
75698;SDS011;64313;51.018;13.742;2022-12-13T06:48:48;14.20;;;6.57;;
75698;SDS011;64313;51.018;13.742;2022-12-13T06:51:14;15.35;;;6.70;;
75698;SDS011;64313;51.018;13.742;2022-12-13T06:53:40;13.30;;;6.57;;
75698;SDS011;64313;51.018;13.742;2022-12-13T06:56:07;15.98;;;7.25;;
75698;SDS011;64313;51.018;13.742;2022-12-13T06:58:34;13.77;;;6.20;;
75698;SDS011;64313;51.018;13.742;2022-12-13T07:01:01;15.98;;;6.00;;
75698;SDS011;64313;51.018;13.742;2022-12-13T07:03:28;16.08;;;6.60;;
75698;SDS011;64313;51.018;13.742;2022-12-13T07:05:54;16.50;;;6.65;;
75698;SDS011;64313;51.018;13.742;2022-12-13T07:08:19;18.90;;;6.70;;
75698;SDS011;64313;51.018;13.742;2022-12-13T07:10:51;18.58;;;8.40;;
75698;SDS011;64313;51.018;13.742;2022-12-13T07:13:20;23.50;;;9.57;;
75698;SDS011;64313;51.018;13.742;2022-12-13T07:15:46;20.58;;;8.27;;
75698;SDS011;64313;51.018;13.742;2022-12-13T07:18:12;19.25;;;8.55;;
75698;SDS011;64313;51.018;13.742;2022-12-13T07:20:41;18.85;;;7.10;;
75698;SDS011;64313;51.018;13.742;2022-12-13T07:23:08;18.02;;;7.60;;
75698;SDS011;64313;51.018;13.742;2022-12-13T07:25:33;18.25;;;8.23;;
75698;SDS011;64313;51.018;13.742;2022-12-13T07:28:00;16.13;;;7.15;;
75698;SDS011;64313;51.018;13.742;2022-12-13T07:30:27;17.05;;;7.65;;
75698;SDS011;64313;51.018;13.742;2022-12-13T07:35:19;16.13;;;6.27;;
75698;SDS011;64313;51.018;13.742;2022-12-13T07:37:44;19.75;;;8.23;;
75698;SDS011;64313;51.018;13.742;2022-12-13T07:40:10;15.82;;;7.22;;
75698;SDS011;64313;51.018;13.742;2022-12-13T07:42:35;15.43;;;6.57;;
75698;SDS011;64313;51.018;13.742;2022-12-13T07:45:01;19.77;;;8.02;;
75698;SDS011;64313;51.018;13.742;2022-12-13T07:47:30;16.00;;;7.15;;
75698;SDS011;64313;51.018;13.742;2022-12-13T07:49:56;17.00;;;7.10;;
75698;SDS011;64313;51.018;13.742;2022-12-13T07:54:48;14.73;;;6.05;;
75698;SDS011;64313;51.018;13.742;2022-12-13T07:57:13;16.38;;;6.65;;
75698;SDS011;64313;51.018;13.742;2022-12-13T07:59:38;17.02;;;6.85;;
75698;SDS011;64313;51.018;13.742;2022-12-13T08:02:11;14.55;;;6.30;;
75698;SDS011;64313;51.018;13.742;2022-12-13T08:04:37;12.85;;;6.00;;
75698;SDS011;64313;51.018;13.742;2022-12-13T08:07:05;13.27;;;6.13;;
75698;SDS011;64313;51.018;13.742;2022-12-13T08:09:31;15.05;;;6.15;;
75698;SDS011;64313;51.018;13.742;2022-12-13T08:11:56;13.85;;;6.15;;
75698;SDS011;64313;51.018;13.742;2022-12-13T08:14:21;11.65;;;5.57;;
75698;SDS011;64313;51.018;13.742;2022-12-13T08:16:47;13.57;;;5.97;;
75698;SDS011;64313;51.018;13.742;2022-12-13T08:19:12;15.77;;;6.13;;
75698;SDS011;64313;51.018;13.742;2022-12-13T08:21:38;16.17;;;6.78;;
75698;SDS011;64313;51.018;13.742;2022-12-13T08:24:05;16.45;;;6.57;;
75698;SDS011;64313;51.018;13.742;2022-12-13T08:26:30;15.40;;;6.72;;
75698;SDS011;64313;51.018;13.742;2022-12-13T08:28:56;14.27;;;6.70;;
75698;SDS011;64313;51.018;13.742;2022-12-13T08:31:21;14.18;;;6.22;;
75698;SDS011;64313;51.018;13.742;2022-12-13T08:33:46;13.38;;;6.15;;
75698;SDS011;64313;51.018;13.742;2022-12-13T08:36:14;14.10;;;6.13;;
75698;SDS011;64313;51.018;13.742;2022-12-13T08:38:41;15.43;;;6.15;;
75698;SDS011;64313;51.018;13.742;2022-12-13T08:41:07;15.23;;;6.95;;
75698;SDS011;64313;51.018;13.742;2022-12-13T08:43:33;16.13;;;7.25;;
75698;SDS011;64313;51.018;13.742;2022-12-13T08:45:59;16.00;;;7.30;;
75698;SDS011;64313;51.018;13.742;2022-12-13T08:48:24;14.23;;;7.50;;
75698;SDS011;64313;51.018;13.742;2022-12-13T08:50:50;18.00;;;7.57;;
75698;SDS011;64313;51.018;13.742;2022-12-13T08:53:17;13.85;;;6.63;;
75698;SDS011;64313;51.018;13.742;2022-12-13T08:55:42;14.25;;;6.85;;
75698;SDS011;64313;51.018;13.742;2022-12-13T08:58:08;14.38;;;6.22;;
75698;SDS011;64313;51.018;13.742;2022-12-13T09:00:35;15.23;;;6.68;;
75698;SDS011;64313;51.018;13.742;2022-12-13T09:03:01;15.15;;;7.03;;
75698;SDS011;64313;51.018;13.742;2022-12-13T09:05:28;16.75;;;7.55;;
75698;SDS011;64313;51.018;13.742;2022-12-13T09:07:54;16.98;;;7.32;;
75698;SDS011;64313;51.018;13.742;2022-12-13T09:10:21;14.07;;;6.68;;
75698;SDS011;64313;51.018;13.742;2022-12-13T09:12:47;17.38;;;7.00;;
75698;SDS011;64313;51.018;13.742;2022-12-13T09:15:12;15.02;;;6.90;;
75698;SDS011;64313;51.018;13.742;2022-12-13T09:17:38;14.82;;;6.72;;
75698;SDS011;64313;51.018;13.742;2022-12-13T09:20:04;16.85;;;7.50;;
75698;SDS011;64313;51.018;13.742;2022-12-13T09:22:31;19.10;;;8.27;;
75698;SDS011;64313;51.018;13.742;2022-12-13T09:24:57;18.17;;;8.30;;
75698;SDS011;64313;51.018;13.742;2022-12-13T09:27:23;18.15;;;8.55;;
75698;SDS011;64313;51.018;13.742;2022-12-13T09:29:49;18.23;;;8.00;;
75698;SDS011;64313;51.018;13.742;2022-12-13T09:32:14;17.48;;;7.50;;
75698;SDS011;64313;51.018;13.742;2022-12-13T09:34:40;16.48;;;7.85;;
75698;SDS011;64313;51.018;13.742;2022-12-13T09:37:05;17.92;;;7.90;;
75698;SDS011;64313;51.018;13.742;2022-12-13T09:39:30;15.80;;;7.40;;
75698;SDS011;64313;51.018;13.742;2022-12-13T09:41:56;15.20;;;7.22;;
75698;SDS011;64313;51.018;13.742;2022-12-13T09:44:23;14.32;;;6.88;;
75698;SDS011;64313;51.018;13.742;2022-12-13T09:46:53;14.93;;;6.68;;
75698;SDS011;64313;51.018;13.742;2022-12-13T09:49:26;12.45;;;6.07;;
75698;SDS011;64313;51.018;13.742;2022-12-13T09:51:56;14.43;;;6.07;;
75698;SDS011;64313;51.018;13.742;2022-12-13T09:54:24;13.38;;;6.22;;
75698;SDS011;64313;51.018;13.742;2022-12-13T09:56:50;12.40;;;5.70;;
75698;SDS011;64313;51.018;13.742;2022-12-13T09:59:18;13.32;;;6.00;;
75698;SDS011;64313;51.018;13.742;2022-12-13T10:01:49;14.90;;;6.45;;
75698;SDS011;64313;51.018;13.742;2022-12-13T10:04:14;12.73;;;5.93;;
75698;SDS011;64313;51.018;13.742;2022-12-13T10:06:40;13.20;;;5.50;;
75698;SDS011;64313;51.018;13.742;2022-12-13T10:09:06;14.10;;;5.78;;
75698;SDS011;64313;51.018;13.742;2022-12-13T10:11:36;13.32;;;6.00;;
75698;SDS011;64313;51.018;13.742;2022-12-13T10:14:11;11.90;;;5.25;;
75698;SDS011;64313;51.018;13.742;2022-12-13T10:16:44;14.45;;;6.22;;
75698;SDS011;64313;51.018;13.742;2022-12-13T10:19:15;12.70;;;5.82;;
75698;SDS011;64313;51.018;13.742;2022-12-13T10:21:43;11.73;;;6.07;;
75698;SDS011;64313;51.018;13.742;2022-12-13T10:24:17;11.45;;;5.05;;
75698;SDS011;64313;51.018;13.742;2022-12-13T10:26:58;13.13;;;5.70;;
75698;SDS011;64313;51.018;13.742;2022-12-13T10:32:28;13.55;;;5.72;;
75698;SDS011;64313;51.018;13.742;2022-12-13T10:34:56;13.15;;;6.07;;
75698;SDS011;64313;51.018;13.742;2022-12-13T10:39:46;12.37;;;5.30;;
75698;SDS011;64313;51.018;13.742;2022-12-13T10:42:13;12.00;;;5.53;;
75698;SDS011;64313;51.018;13.742;2022-12-13T10:44:43;12.48;;;5.30;;
75698;SDS011;64313;51.018;13.742;2022-12-13T10:49:36;11.97;;;5.10;;
75698;SDS011;64313;51.018;13.742;2022-12-13T10:52:06;12.90;;;5.05;;
75698;SDS011;64313;51.018;13.742;2022-12-13T10:54:44;13.85;;;6.22;;
75698;SDS011;64313;51.018;13.742;2022-12-13T10:57:12;12.10;;;5.78;;
75698;SDS011;64313;51.018;13.742;2022-12-13T10:59:38;13.43;;;5.55;;
75698;SDS011;64313;51.018;13.742;2022-12-13T11:07:50;14.45;;;6.55;;
75698;SDS011;64313;51.018;13.742;2022-12-13T11:10:21;15.48;;;6.93;;
75698;SDS011;64313;51.018;13.742;2022-12-13T11:12:49;18.42;;;6.95;;
75698;SDS011;64313;51.018;13.742;2022-12-13T11:15:19;14.35;;;6.57;;
75698;SDS011;64313;51.018;13.742;2022-12-13T11:17:51;15.68;;;6.85;;
75698;SDS011;64313;51.018;13.742;2022-12-13T11:20:25;13.38;;;6.18;;
75698;SDS011;64313;51.018;13.742;2022-12-13T11:23:03;17.38;;;6.90;;
75698;SDS011;64313;51.018;13.742;2022-12-13T11:25:34;15.52;;;7.07;;
75698;SDS011;64313;51.018;13.742;2022-12-13T11:31:09;13.90;;;5.55;;
75698;SDS011;64313;51.018;13.742;2022-12-13T11:33:44;13.20;;;5.90;;
75698;SDS011;64313;51.018;13.742;2022-12-13T11:36:24;14.30;;;5.95;;
75698;SDS011;64313;51.018;13.742;2022-12-13T11:47:05;14.40;;;6.63;;
75698;SDS011;64313;51.018;13.742;2022-12-13T11:49:39;13.57;;;6.18;;
75698;SDS011;64313;51.018;13.742;2022-12-13T11:52:17;12.38;;;5.60;;
75698;SDS011;64313;51.018;13.742;2022-12-13T11:57:46;13.95;;;6.55;;
75698;SDS011;64313;51.018;13.742;2022-12-13T12:00:29;12.48;;;6.43;;
75698;SDS011;64313;51.018;13.742;2022-12-13T12:03:12;15.10;;;6.50;;
75698;SDS011;64313;51.018;13.742;2022-12-13T12:05:45;13.88;;;6.18;;
75698;SDS011;64313;51.018;13.742;2022-12-13T12:08:25;14.10;;;6.50;;
75698;SDS011;64313;51.018;13.742;2022-12-13T12:13:37;13.23;;;6.15;;
75698;SDS011;64313;51.018;13.742;2022-12-13T12:16:20;14.20;;;5.80;;
75698;SDS011;64313;51.018;13.742;2022-12-13T12:18:52;13.23;;;5.18;;
75698;SDS011;64313;51.018;13.742;2022-12-13T12:21:22;13.45;;;5.40;;
75698;SDS011;64313;51.018;13.742;2022-12-13T12:26:52;13.20;;;5.88;;
75698;SDS011;64313;51.018;13.742;2022-12-13T12:40:25;12.20;;;5.40;;
75698;SDS011;64313;51.018;13.742;2022-12-13T12:46:02;12.35;;;4.95;;
75698;SDS011;64313;51.018;13.742;2022-12-13T13:00:16;12.25;;;4.90;;
75698;SDS011;64313;51.018;13.742;2022-12-13T13:05:47;11.23;;;5.10;;
75698;SDS011;64313;51.018;13.742;2022-12-13T13:08:22;11.00;;;4.63;;
75698;SDS011;64313;51.018;13.742;2022-12-13T13:10:52;9.63;;;4.32;;
75698;SDS011;64313;51.018;13.742;2022-12-13T13:13:33;9.35;;;4.45;;
75698;SDS011;64313;51.018;13.742;2022-12-13T13:19:06;10.93;;;4.40;;
75698;SDS011;64313;51.018;13.742;2022-12-13T13:21:55;9.77;;;4.20;;
75698;SDS011;64313;51.018;13.742;2022-12-13T13:24:25;10.82;;;4.90;;
75698;SDS011;64313;51.018;13.742;2022-12-13T13:26:54;12.20;;;4.50;;
75698;SDS011;64313;51.018;13.742;2022-12-13T13:29:48;10.48;;;4.93;;
75698;SDS011;64313;51.018;13.742;2022-12-13T13:34:46;11.45;;;5.22;;
75698;SDS011;64313;51.018;13.742;2022-12-13T13:42:17;12.68;;;6.03;;
75698;SDS011;64313;51.018;13.742;2022-12-13T14:03:54;16.80;;;6.72;;
75698;SDS011;64313;51.018;13.742;2022-12-13T14:10:01;17.80;;;7.00;;
75698;SDS011;64313;51.018;13.742;2022-12-13T14:15:58;16.38;;;6.85;;
75698;SDS011;64313;51.018;13.742;2022-12-13T14:29:16;20.23;;;8.27;;
75698;SDS011;64313;51.018;13.742;2022-12-13T14:31:52;18.00;;;7.78;;
75698;SDS011;64313;51.018;13.742;2022-12-13T14:34:29;17.25;;;8.05;;
75698;SDS011;64313;51.018;13.742;2022-12-13T14:36:58;15.95;;;7.40;;
75698;SDS011;64313;51.018;13.742;2022-12-13T14:39:28;16.75;;;7.68;;
75698;SDS011;64313;51.018;13.742;2022-12-13T14:41:56;13.88;;;7.05;;
75698;SDS011;64313;51.018;13.742;2022-12-13T14:44:32;14.80;;;6.68;;
75698;SDS011;64313;51.018;13.742;2022-12-13T14:47:00;15.93;;;6.90;;
75698;SDS011;64313;51.018;13.742;2022-12-13T14:49:29;15.18;;;7.03;;
75698;SDS011;64313;51.018;13.742;2022-12-13T14:51:57;11.95;;;6.32;;
75698;SDS011;64313;51.018;13.742;2022-12-13T14:54:30;14.93;;;6.75;;
75698;SDS011;64313;51.018;13.742;2022-12-13T14:57:03;13.23;;;6.25;;
75698;SDS011;64313;51.018;13.742;2022-12-13T14:59:29;14.15;;;6.22;;
75698;SDS011;64313;51.018;13.742;2022-12-13T15:04:33;13.48;;;5.72;;
75698;SDS011;64313;51.018;13.742;2022-12-13T15:07:03;13.63;;;6.07;;
75698;SDS011;64313;51.018;13.742;2022-12-13T15:09:55;12.88;;;6.13;;
75698;SDS011;64313;51.018;13.742;2022-12-13T15:12:23;15.93;;;6.72;;
75698;SDS011;64313;51.018;13.742;2022-12-13T15:14:55;20.58;;;8.20;;
75698;SDS011;64313;51.018;13.742;2022-12-13T15:17:33;23.58;;;9.95;;
75698;SDS011;64313;51.018;13.742;2022-12-13T15:20:25;22.92;;;10.13;;
75698;SDS011;64313;51.018;13.742;2022-12-13T15:22:59;22.10;;;9.73;;
75698;SDS011;64313;51.018;13.742;2022-12-13T15:25:55;18.98;;;8.35;;
75698;SDS011;64313;51.018;13.742;2022-12-13T15:28:22;18.85;;;7.93;;
75698;SDS011;64313;51.018;13.742;2022-12-13T15:30:51;14.43;;;7.43;;
75698;SDS011;64313;51.018;13.742;2022-12-13T15:33:21;15.02;;;6.68;;
75698;SDS011;64313;51.018;13.742;2022-12-13T15:35:49;13.13;;;6.80;;
75698;SDS011;64313;51.018;13.742;2022-12-13T15:38:27;13.68;;;6.63;;
75698;SDS011;64313;51.018;13.742;2022-12-13T15:40:52;14.60;;;6.50;;
75698;SDS011;64313;51.018;13.742;2022-12-13T15:43:21;14.05;;;6.57;;
75698;SDS011;64313;51.018;13.742;2022-12-13T15:45:51;15.68;;;6.75;;
75698;SDS011;64313;51.018;13.742;2022-12-13T15:51:13;15.02;;;6.88;;
75698;SDS011;64313;51.018;13.742;2022-12-13T15:56:34;18.42;;;7.53;;
75698;SDS011;64313;51.018;13.742;2022-12-13T15:59:03;15.57;;;6.85;;
75698;SDS011;64313;51.018;13.742;2022-12-13T16:01:31;18.63;;;7.75;;
75698;SDS011;64313;51.018;13.742;2022-12-13T16:03:58;15.52;;;7.10;;
75698;SDS011;64313;51.018;13.742;2022-12-13T16:06:27;14.13;;;6.80;;
75698;SDS011;64313;51.018;13.742;2022-12-13T16:08:55;15.52;;;6.72;;
75698;SDS011;64313;51.018;13.742;2022-12-13T16:11:24;15.38;;;7.32;;
75698;SDS011;64313;51.018;13.742;2022-12-13T16:13:53;16.65;;;7.03;;
75698;SDS011;64313;51.018;13.742;2022-12-13T16:16:19;17.67;;;7.00;;
75698;SDS011;64313;51.018;13.742;2022-12-13T16:18:56;18.27;;;7.53;;
75698;SDS011;64313;51.018;13.742;2022-12-13T16:21:23;18.80;;;6.90;;
75698;SDS011;64313;51.018;13.742;2022-12-13T16:23:49;14.93;;;6.72;;
75698;SDS011;64313;51.018;13.742;2022-12-13T16:26:19;13.82;;;6.50;;
75698;SDS011;64313;51.018;13.742;2022-12-13T16:28:47;18.73;;;7.32;;
75698;SDS011;64313;51.018;13.742;2022-12-13T16:31:16;14.43;;;6.13;;
75698;SDS011;64313;51.018;13.742;2022-12-13T16:33:46;15.90;;;6.57;;
75698;SDS011;64313;51.018;13.742;2022-12-13T16:36:11;15.32;;;6.82;;
75698;SDS011;64313;51.018;13.742;2022-12-13T16:38:37;18.80;;;7.80;;
75698;SDS011;64313;51.018;13.742;2022-12-13T16:41:02;17.52;;;8.18;;
75698;SDS011;64313;51.018;13.742;2022-12-13T16:43:28;20.38;;;9.88;;
75698;SDS011;64313;51.018;13.742;2022-12-13T16:45:59;18.33;;;8.85;;
75698;SDS011;64313;51.018;13.742;2022-12-13T16:48:27;20.63;;;9.13;;
75698;SDS011;64313;51.018;13.742;2022-12-13T16:50:53;18.80;;;9.27;;
75698;SDS011;64313;51.018;13.742;2022-12-13T16:53:18;21.02;;;9.30;;